Time;durP1;ratioP1;P1;durP2;ratioP2;P2;SDS_P1;SDS_P2;PMS_P1;PMS_P2;Temp;Humidity;BMP_temperature;BMP_pressure;BME280_temperature;BME280_humidity;BME280_pressure;Samples;Min_cycle;Max_cycle;Signal;HPM_P1;HPM_P2
2022/03/17 00:00:55;;;;;;;0.93;0.63;;;10.70;99.90;;;;;;5072634;28;20408;-80
2022/03/17 00:03:21;;;;;;;0.65;0.65;;;10.70;99.90;;;;;;5056135;28;20131;-80
2022/03/17 00:05:47;;;;;;;2.67;1.23;;;10.60;99.90;;;;;;5056276;28;20051;-80
2022/03/17 00:08:14;;;;;;;0.43;0.43;;;10.70;99.90;;;;;;5056160;28;20052;-80
2022/03/17 00:10:39;;;;;;;1.55;0.75;;;10.60;99.90;;;;;;5072963;28;20056;-80
2022/03/17 00:13:05;;;;;;;0.95;0.82;;;10.60;99.90;;;;;;5072850;28;20044;-80
2022/03/17 00:15:31;;;;;;;0.20;0.20;;;10.60;99.90;;;;;;5072605;28;20381;-80
2022/03/17 00:17:57;;;;;;;0.30;0.30;;;10.60;99.90;;;;;;5072639;28;20040;-80
2022/03/17 00:20:23;;;;;;;8.00;1.48;;;10.60;99.90;;;;;;5072672;28;20091;-81
2022/03/17 00:22:49;;;;;;;0.10;0.10;;;10.60;99.90;;;;;;5072472;28;20051;-80
2022/03/17 00:25:16;;;;;;;0.50;0.50;;;10.60;99.90;;;;;;5055842;28;20093;-80
2022/03/17 00:27:42;;;;;;;1.08;1.00;;;10.60;99.90;;;;;;5072718;28;20109;-80
2022/03/17 00:30:08;;;;;;;1.02;0.45;;;10.60;99.90;;;;;;5072562;28;20048;-80
2022/03/17 00:32:34;;;;;;;1.65;1.35;;;10.60;99.90;;;;;;5072254;28;20454;-80
2022/03/17 00:37:44;;;;;;;1.67;1.33;;;10.60;99.90;;;;;;5072987;28;20106;-80
2022/03/17 00:40:10;;;;;;;0.63;0.60;;;10.60;99.90;;;;;;5072129;28;20485;-80
2022/03/17 00:42:36;;;;;;;0.73;0.73;;;10.60;99.90;;;;;;5072563;28;20057;-80
2022/03/17 00:45:02;;;;;;;0.90;0.90;;;10.60;99.90;;;;;;5072161;28;20461;-80
2022/03/17 00:47:28;;;;;;;3.63;1.33;;;10.60;99.90;;;;;;5072424;28;20476;-80
2022/03/17 00:49:54;;;;;;;0.38;0.38;;;10.60;99.90;;;;;;5055781;28;20048;-80
2022/03/17 00:52:20;;;;;;;3.45;1.33;;;10.60;99.90;;;;;;5072363;28;20045;-80
2022/03/17 00:54:46;;;;;;;1.13;0.50;;;10.60;99.90;;;;;;5072327;28;20123;-80
2022/03/17 00:57:12;;;;;;;0.90;0.40;;;10.60;99.90;;;;;;5055629;28;20067;-80
2022/03/17 00:59:40;;;;;;;0.95;0.50;;;10.60;99.90;;;;;;5055364;28;20484;-80
2022/03/17 01:02:07;;;;;;;5.53;1.02;;;10.70;99.90;;;;;;5072287;28;20055;-81
2022/03/17 01:04:33;;;;;;;0.52;0.25;;;10.60;99.90;;;;;;5055699;28;20059;-80
2022/03/17 01:06:59;;;;;;;1.02;0.47;;;10.60;99.90;;;;;;5072378;28;20045;-80
2022/03/17 01:09:25;;;;;;;0.47;0.20;;;10.50;99.90;;;;;;5055703;28;20404;-80
2022/03/17 01:11:50;;;;;;;8.48;1.63;;;10.60;99.90;;;;;;5072195;28;20037;-80
2022/03/17 01:14:16;;;;;;;1.60;1.50;;;10.70;99.90;;;;;;5072207;28;20048;-80
2022/03/17 01:16:42;;;;;;;0.77;0.40;;;10.60;99.90;;;;;;5055387;28;20049;-80
2022/03/17 01:19:08;;;;;;;5.68;0.95;;;10.60;99.90;;;;;;5055567;28;20071;-80
2022/03/17 01:21:34;;;;;;;4.10;0.60;;;10.60;99.90;;;;;;5072164;28;20044;-80
2022/03/17 01:24:00;;;;;;;3.03;2.10;;;10.60;99.90;;;;;;5072392;28;20098;-80
2022/03/17 01:26:26;;;;;;;6.03;1.05;;;10.60;99.90;;;;;;5073244;28;20396;-80
2022/03/17 01:28:52;;;;;;;1.38;0.68;;;10.60;99.90;;;;;;5059229;28;20550;-80
2022/03/17 01:31:20;;;;;;;0.35;0.20;;;10.60;99.90;;;;;;5059964;28;20174;-80
2022/03/17 01:33:46;;;;;;;1.10;1.10;;;10.50;99.90;;;;;;5059511;28;20046;-80
2022/03/17 01:36:11;;;;;;;2.53;0.68;;;10.60;99.90;;;;;;5076023;28;20396;-80
2022/03/17 01:38:37;;;;;;;1.48;1.13;;;10.60;99.90;;;;;;5058832;28;20056;-80
2022/03/17 01:41:03;;;;;;;0.77;0.77;;;10.60;99.90;;;;;;5075077;28;20393;-80
2022/03/17 01:43:28;;;;;;;2.28;1.73;;;10.60;99.90;;;;;;5058851;28;20052;-80
2022/03/17 01:45:54;;;;;;;0.10;0.10;;;10.60;99.90;;;;;;5075602;28;20109;-80
2022/03/17 01:48:21;;;;;;;0.40;0.28;;;10.60;99.90;;;;;;5058783;28;20486;-80
2022/03/17 01:50:48;;;;;;;0.32;0.30;;;10.60;99.90;;;;;;5075449;28;20159;-80
2022/03/17 01:53:14;;;;;;;1.80;0.77;;;10.60;99.90;;;;;;5075412;28;20060;-80
2022/03/17 01:55:40;;;;;;;2.88;1.10;;;10.50;99.90;;;;;;5074997;28;20036;-80
2022/03/17 01:58:06;;;;;;;1.05;0.65;;;10.60;99.90;;;;;;5075380;28;20060;-80
2022/03/17 02:00:32;;;;;;;0.95;0.47;;;10.50;99.90;;;;;;5075489;28;20047;-80
2022/03/17 02:02:57;;;;;;;0.65;0.52;;;10.60;99.90;;;;;;5058924;28;20044;-80
2022/03/17 02:05:23;;;;;;;1.67;1.48;;;10.60;99.90;;;;;;5075147;28;20516;-80
2022/03/17 02:07:52;;;;;;;0.70;0.70;;;10.60;99.90;;;;;;5075053;28;20044;-80
2022/03/17 02:10:19;;;;;;;0.80;0.63;;;10.50;99.90;;;;;;5058014;28;20064;-80
2022/03/17 02:15:32;;;;;;;0.30;0.30;;;10.40;99.90;;;;;;5075056;28;20123;-80
2022/03/17 02:17:58;;;;;;;2.25;2.05;;;10.40;99.90;;;;;;5075100;28;20044;-80
2022/03/17 02:20:25;;;;;;;0.22;0.22;;;10.40;99.90;;;;;;5074589;28;20048;-80
2022/03/17 02:22:53;;;;;;;0.08;0.08;;;10.40;99.90;;;;;;5074730;28;20480;-80
2022/03/17 02:25:35;;;;;;;1.40;0.73;;;10.40;99.90;;;;;;5075457;28;20090;-80
2022/03/17 02:28:03;;;;;;;1.15;0.82;;;10.30;99.90;;;;;;5058294;28;20129;-80
2022/03/17 02:30:30;;;;;;;0.80;0.47;;;10.40;99.90;;;;;;5074272;28;20491;-80
2022/03/17 02:33:02;;;;;;;0.15;0.15;;;10.40;99.90;;;;;;5074887;28;20393;-80
2022/03/17 02:35:29;;;;;;;0.52;0.52;;;10.40;99.90;;;;;;5074653;28;20131;-80
2022/03/17 02:37:56;;;;;;;0.10;0.10;;;10.40;99.90;;;;;;5074457;28;20051;-81
2022/03/17 02:40:22;;;;;;;0.47;0.47;;;10.40;99.90;;;;;;5074156;28;20139;-80
2022/03/17 02:42:50;;;;;;;0.45;0.45;;;10.40;99.90;;;;;;5057852;28;20044;-80
2022/03/17 02:45:16;;;;;;;4.45;0.52;;;10.40;99.90;;;;;;5057771;28;20369;-80
2022/03/17 02:47:42;;;;;;;0.30;0.30;;;10.40;99.90;;;;;;5074392;28;20115;-80
2022/03/17 02:50:10;;;;;;;1.92;0.80;;;10.40;99.90;;;;;;5074379;28;20061;-80
2022/03/17 02:52:36;;;;;;;1.08;0.55;;;10.40;99.90;;;;;;5074289;28;20048;-80
2022/03/17 02:55:02;;;;;;;0.60;0.52;;;10.40;99.90;;;;;;5074261;28;20048;-80
2022/03/17 02:57:28;;;;;;;0.22;0.22;;;10.40;99.90;;;;;;5057322;28;20056;-80
2022/03/17 02:59:54;;;;;;;2.40;0.90;;;10.40;99.90;;;;;;5073846;28;20049;-80
2022/03/17 03:02:21;;;;;;;1.40;0.80;;;10.40;99.90;;;;;;5074009;28;20400;-80
2022/03/17 03:04:47;;;;;;;0.70;0.30;;;10.40;99.90;;;;;;5073970;28;20048;-80
2022/03/17 03:07:12;;;;;;;0.77;0.77;;;10.40;99.90;;;;;;5057351;28;20052;-80
2022/03/17 03:09:38;;;;;;;0.43;0.43;;;10.40;99.90;;;;;;5074028;28;20048;-80
2022/03/17 03:12:05;;;;;;;1.70;0.80;;;10.30;99.90;;;;;;5057342;28;20048;-80
2022/03/17 03:14:31;;;;;;;0.68;0.68;;;10.30;99.90;;;;;;5057001;28;20514;-80
2022/03/17 03:16:57;;;;;;;0.50;0.40;;;10.20;99.90;;;;;;5057109;28;20106;-80
2022/03/17 03:19:22;;;;;;;0.38;0.35;;;10.30;99.90;;;;;;5073672;28;20435;-80
2022/03/17 03:21:48;;;;;;;1.10;0.20;;;10.30;99.90;;;;;;5073685;28;20055;-80
2022/03/17 03:24:14;;;;;;;1.52;1.13;;;10.30;99.90;;;;;;5057731;28;20061;-80
2022/03/17 03:26:41;;;;;;;2.30;0.95;;;10.30;99.90;;;;;;5073901;28;20090;-80
2022/03/17 03:29:26;;;;;;;0.63;0.63;;;10.30;99.90;;;;;;5057002;28;20384;-80
2022/03/17 03:31:54;;;;;;;0.20;0.20;;;10.30;99.90;;;;;;5057163;28;20102;-80
2022/03/17 03:34:20;;;;;;;2.08;0.70;;;10.30;99.90;;;;;;5073692;28;20048;-80
2022/03/17 03:39:31;;;;;;;;;;;10.30;99.90;;;;;;5073627;28;20041;-80
2022/03/17 03:41:57;;;;;;;0.10;0.10;;;10.30;99.90;;;;;;5056577;28;19927;-80
2022/03/17 03:44:23;;;;;;;0.68;0.50;;;10.30;99.90;;;;;;5073695;28;20131;-80
2022/03/17 03:46:49;;;;;;;1.08;0.65;;;10.30;99.90;;;;;;5056544;28;20110;-80
2022/03/17 03:49:14;;;;;;;2.00;0.60;;;10.30;99.90;;;;;;5072513;28;20506;-80
2022/03/17 03:51:40;;;;;;;0.65;0.65;;;10.40;99.90;;;;;;5073135;28;20093;-80
2022/03/17 03:54:18;;;;;;;0.90;0.35;;;10.40;99.90;;;;;;5056501;28;20411;-80
2022/03/17 03:56:49;;;;;;;0.40;0.32;;;10.40;99.90;;;;;;5056493;28;20065;-80
2022/03/17 03:59:20;;;;;;;4.30;1.27;;;10.40;99.90;;;;;;5072707;28;20063;-80
2022/03/17 04:01:47;;;;;;;3.17;1.45;;;10.40;99.90;;;;;;5073377;28;20055;-80
2022/03/17 04:04:17;;;;;;;3.70;1.23;;;10.40;99.90;;;;;;5072992;28;20080;-80
2022/03/17 04:06:45;;;;;;;2.30;0.35;;;10.40;99.90;;;;;;5073013;28;20085;-81
2022/03/17 04:09:12;;;;;;;3.10;0.82;;;10.40;99.90;;;;;;5072445;28;20502;-80
2022/03/17 04:11:39;;;;;;;0.60;0.45;;;10.40;99.90;;;;;;5072836;28;20041;-80
2022/03/17 04:14:05;;;;;;;2.10;0.68;;;10.50;99.90;;;;;;5072808;28;20041;-80
2022/03/17 04:16:31;;;;;;;0.63;0.47;;;10.50;99.90;;;;;;5055933;28;20057;-80
2022/03/17 04:18:57;;;;;;;0.50;0.43;;;10.60;99.90;;;;;;5072785;28;20067;-80
2022/03/17 04:21:22;;;;;;;0.30;0.30;;;10.60;99.90;;;;;;5072356;28;20048;-80
2022/03/17 04:23:48;;;;;;;1.30;0.63;;;10.70;99.90;;;;;;5072248;28;20063;-80
2022/03/17 04:26:14;;;;;;;0.38;0.38;;;10.70;99.90;;;;;;5073264;28;20047;-80
2022/03/17 04:28:39;;;;;;;0.10;0.10;;;10.70;99.90;;;;;;5073124;28;20376;-80
2022/03/17 04:31:05;;;;;;;4.65;1.58;;;10.80;99.90;;;;;;5072292;28;20048;-80
2022/03/17 04:33:31;;;;;;;1.25;0.52;;;10.80;99.90;;;;;;5072366;28;20055;-80
2022/03/17 04:35:56;;;;;;;0.10;0.10;;;10.80;99.90;;;;;;5055973;28;20063;-80
2022/03/17 04:38:22;;;;;;;0.85;0.65;;;10.80;99.90;;;;;;5072521;28;20492;-80
2022/03/17 04:40:49;;;;;;;2.50;1.25;;;10.80;99.90;;;;;;5071952;28;20400;-80
2022/03/17 04:43:18;;;;;;;1.10;0.47;;;10.80;99.90;;;;;;5055718;28;20048;-80
2022/03/17 04:45:45;;;;;;;3.63;1.35;;;10.90;99.90;;;;;;5072486;28;20052;-80
2022/03/17 04:48:11;;;;;;;0.77;0.77;;;10.80;99.90;;;;;;5055649;28;20067;-81
2022/03/17 04:50:36;;;;;;;1.48;1.15;;;10.80;99.90;;;;;;5056090;28;20149;-80
2022/03/17 04:55:46;;;;;;;1.90;0.80;;;10.70;99.90;;;;;;5072608;28;20086;-80
2022/03/17 04:58:13;;;;;;;1.77;1.48;;;10.60;99.90;;;;;;5072195;28;20044;-80
2022/03/17 05:00:42;;;;;;;0.20;0.20;;;10.60;99.90;;;;;;5072091;28;20040;-80
2022/03/17 05:03:09;;;;;;;0.43;0.35;;;10.50;99.90;;;;;;5059142;28;20067;-80
2022/03/17 05:05:34;;;;;;;2.17;0.50;;;10.50;99.90;;;;;;5060236;28;20127;-80
2022/03/17 05:08:00;;;;;;;0.73;0.73;;;10.40;99.90;;;;;;5076262;28;20055;-80
2022/03/17 05:10:28;;;;;;;0.47;0.38;;;10.30;99.90;;;;;;5076162;28;20044;-80
2022/03/17 05:12:57;;;;;;;2.10;0.52;;;10.20;99.90;;;;;;5075739;28;20044;-80
2022/03/17 05:15:24;;;;;;;4.85;2.10;;;10.20;99.90;;;;;;5076061;28;20080;-80
2022/03/17 05:17:50;;;;;;;12.48;2.33;;;10.20;99.90;;;;;;5076071;28;20476;-80
2022/03/17 05:20:17;;;;;;;2.70;0.75;;;10.10;99.90;;;;;;5075758;28;20087;-80
2022/03/17 05:22:43;;;;;;;1.17;0.22;;;10.10;99.90;;;;;;5059375;28;20044;-80
2022/03/17 05:25:12;;;;;;;0.40;0.30;;;10.10;99.90;;;;;;5076357;28;20473;-80
2022/03/17 05:27:39;;;;;;;7.18;2.00;;;10.10;99.90;;;;;;5076114;28;20460;-80
2022/03/17 05:30:06;;;;;;;0.77;0.70;;;10.00;99.90;;;;;;5059154;28;20131;-80
2022/03/17 05:32:32;;;;;;;1.55;1.45;;;10.00;99.90;;;;;;5075701;28;20041;-80
2022/03/17 05:34:58;;;;;;;0.25;0.20;;;9.90;99.90;;;;;;5076227;28;20412;-79
2022/03/17 05:37:23;;;;;;;0.05;0.05;;;9.80;99.90;;;;;;5075713;28;20047;-80
2022/03/17 05:39:50;;;;;;;0.20;0.20;;;9.70;99.90;;;;;;5075341;28;20434;-79
2022/03/17 05:42:17;;;;;;;0.00;0.00;;;9.60;99.90;;;;;;5075290;28;20400;-79
2022/03/17 05:44:42;;;;;;;0.03;0.00;;;9.40;99.90;;;;;;5058971;28;20050;-79
2022/03/17 05:47:08;;;;;;;0.50;0.50;;;9.30;99.90;;;;;;5058853;28;20048;-80
2022/03/17 05:49:34;;;;;;;0.20;0.20;;;9.20;99.90;;;;;;5058677;28;20082;-80
2022/03/17 05:51:59;;;;;;;0.00;0.00;;;9.10;99.90;;;;;;5058805;28;20396;-80
2022/03/17 05:54:25;;;;;;;0.00;0.00;;;9.10;99.90;;;;;;5075563;28;20047;-80
2022/03/17 05:56:51;;;;;;;0.00;0.00;;;9.00;99.90;;;;;;5075383;28;20477;-80
2022/03/17 05:59:16;;;;;;;0.13;0.08;;;8.90;99.90;;;;;;5058790;28;20059;-80
2022/03/17 06:01:42;;;;;;;0.28;0.00;;;8.90;99.90;;;;;;5058596;28;20132;-80
2022/03/17 06:04:08;;;;;;;0.70;0.17;;;8.90;99.90;;;;;;5058403;28;20048;-80
2022/03/17 06:06:34;;;;;;;0.00;0.00;;;8.90;99.90;;;;;;5058735;28;20099;-79
2022/03/17 06:09:00;;;;;;;0.10;0.00;;;8.80;99.90;;;;;;5075503;28;20046;-80
2022/03/17 06:11:27;;;;;;;0.00;0.00;;;8.80;99.90;;;;;;5074895;28;20053;-79
2022/03/17 06:13:53;;;;;;;0.00;0.00;;;8.80;99.90;;;;;;5058009;28;20139;-79
2022/03/17 06:16:20;;;;;;;0.47;0.10;;;8.70;99.90;;;;;;5074750;28;20052;-79
2022/03/17 06:18:46;;;;;;;0.20;0.10;;;8.70;99.90;;;;;;5074962;28;20048;-79
2022/03/17 06:21:12;;;;;;;0.00;0.00;;;8.70;99.90;;;;;;5057570;28;20090;-79
2022/03/17 06:23:38;;;;;;;0.00;0.00;;;8.60;99.90;;;;;;5058464;28;20056;-79
2022/03/17 06:26:03;;;;;;;0.00;0.00;;;8.70;99.90;;;;;;5074928;28;20044;-79
2022/03/17 06:28:29;;;;;;;0.00;0.00;;;8.60;99.90;;;;;;5074783;28;20480;-79
2022/03/17 06:30:55;;;;;;;0.20;0.20;;;8.50;99.90;;;;;;5057963;28;20064;-79
2022/03/17 06:33:21;;;;;;;0.90;0.45;;;8.60;99.90;;;;;;5074475;28;20079;-79
2022/03/17 06:35:46;;;;;;;0.00;0.00;;;8.50;99.90;;;;;;5075130;28;20086;-79
2022/03/17 06:38:12;;;;;;;0.10;0.08;;;8.60;99.90;;;;;;5074802;28;20094;-79
2022/03/17 06:40:38;;;;;;;0.17;0.17;;;8.50;99.90;;;;;;5073928;28;20048;-80
2022/03/17 06:43:04;;;;;;;0.08;0.00;;;8.50;99.90;;;;;;5057774;28;20119;-79
2022/03/17 06:45:31;;;;;;;1.92;0.25;;;8.50;99.90;;;;;;5074129;28;20102;-79
2022/03/17 06:47:56;;;;;;;4.85;0.63;;;8.50;99.90;;;;;;5057613;28;20060;-80
2022/03/17 06:50:23;;;;;;;0.35;0.30;;;8.50;99.90;;;;;;5057642;28;20389;-79
2022/03/17 06:52:50;;;;;;;1.08;0.20;;;8.50;99.90;;;;;;5074349;28;20052;-80
2022/03/17 06:55:16;;;;;;;0.00;0.00;;;8.50;99.90;;;;;;5057746;28;20045;-80
2022/03/17 06:57:42;;;;;;;0.00;0.00;;;8.60;99.90;;;;;;5074181;28;20090;-80
2022/03/17 07:00:18;;;;;;;1.65;0.80;;;8.50;99.90;;;;;;5074213;28;20430;-80
2022/03/17 07:02:44;;;;;;;0.00;0.00;;;8.50;99.90;;;;;;5073716;28;20056;-79
2022/03/17 07:05:10;;;;;;;1.15;0.30;;;8.50;99.90;;;;;;5074036;28;20044;-79
2022/03/17 07:07:36;;;;;;;0.10;0.10;;;8.40;99.90;;;;;;5074277;28;20044;-79
2022/03/17 07:10:05;;;;;;;2.30;0.63;;;8.40;99.90;;;;;;5057088;28;20400;-79
2022/03/17 07:12:31;;;;;;;0.00;0.00;;;8.40;99.90;;;;;;5073577;28;20373;-81
2022/03/17 07:14:57;;;;;;;0.00;0.00;;;8.40;99.90;;;;;;5074458;28;20044;-80
2022/03/17 07:17:22;;;;;;;0.00;0.00;;;8.40;99.90;;;;;;5073593;28;20040;-82
2022/03/17 07:22:27;;;;;;;0.93;0.75;;;8.30;99.90;;;;;;5060962;28;20080;-80
2022/03/17 07:24:53;;;;;;;0.00;0.00;;;8.30;99.90;;;;;;5044383;28;20052;-80
2022/03/17 07:27:21;;;;;;;0.00;0.00;;;8.40;99.90;;;;;;5062963;28;20405;-78
2022/03/17 07:29:47;;;;;;;0.00;0.00;;;8.40;99.90;;;;;;5061024;28;20183;-80
2022/03/17 07:32:13;;;;;;;0.08;0.00;;;8.40;99.90;;;;;;5072838;28;20408;-80
2022/03/17 07:34:38;;;;;;;0.38;0.38;;;8.40;99.90;;;;;;5073519;28;20048;-80
2022/03/17 07:37:04;;;;;;;0.00;0.00;;;8.40;99.90;;;;;;5072768;28;20075;-81
2022/03/17 07:39:30;;;;;;;0.00;0.00;;;8.30;99.90;;;;;;5072511;28;20052;-80
2022/03/17 07:41:56;;;;;;;0.08;0.08;;;8.40;99.90;;;;;;5073168;28;20049;-80
2022/03/17 07:44:22;;;;;;;0.00;0.00;;;8.50;99.90;;;;;;5056502;28;20157;-80
2022/03/17 07:46:48;;;;;;;0.20;0.20;;;8.50;99.90;;;;;;5073216;28;20056;-80
2022/03/17 07:49:14;;;;;;;0.00;0.00;;;8.50;99.90;;;;;;5056302;28;20403;-80
2022/03/17 07:51:42;;;;;;;0.95;0.00;;;8.50;99.90;;;;;;5056612;28;20082;-80
2022/03/17 07:54:07;;;;;;;0.00;0.00;;;8.50;99.90;;;;;;5073097;28;20080;-80
2022/03/17 07:56:34;;;;;;;0.17;0.17;;;8.40;99.90;;;;;;5073069;28;20090;-80
2022/03/17 07:59:00;;;;;;;0.05;0.05;;;8.40;99.90;;;;;;5056199;28;20094;-80
2022/03/17 08:01:26;;;;;;;0.03;0.03;;;8.40;99.90;;;;;;5071757;28;20053;-80
2022/03/17 08:03:55;;;;;;;0.00;0.00;;;8.40;99.90;;;;;;5070886;28;20050;-79
2022/03/17 08:06:25;;;;;;;0.00;0.00;;;8.50;99.90;;;;;;5072336;28;20039;-80
2022/03/17 08:08:51;;;;;;;0.10;0.00;;;8.40;99.90;;;;;;5073396;28;20174;-80
2022/03/17 08:11:17;;;;;;;1.48;1.35;;;8.40;99.90;;;;;;5072871;28;20051;-80
2022/03/17 08:13:42;;;;;;;1.27;0.03;;;8.40;99.90;;;;;;5073372;28;20052;-80
2022/03/17 08:16:10;;;;;;;0.20;0.20;;;8.40;99.90;;;;;;5072783;28;20036;-80
2022/03/17 08:18:36;;;;;;;0.00;0.00;;;8.40;99.90;;;;;;5056024;28;20070;-80
2022/03/17 08:21:02;;;;;;;0.00;0.00;;;8.40;99.90;;;;;;5072476;28;20067;-80
2022/03/17 08:23:28;;;;;;;0.00;0.00;;;8.40;99.90;;;;;;5055923;28;20056;-79
2022/03/17 08:25:54;;;;;;;0.00;0.00;;;8.40;99.90;;;;;;5073273;28;20044;-80
2022/03/17 08:28:19;;;;;;;0.30;0.20;;;8.40;99.90;;;;;;5072698;28;20050;-80
2022/03/17 08:30:50;;;;;;;0.00;0.00;;;8.40;99.90;;;;;;5072349;28;20055;-80
2022/03/17 08:33:18;;;;;;;0.00;0.00;;;8.40;99.90;;;;;;5072469;28;20052;-80
2022/03/17 08:35:44;;;;;;;0.00;0.00;;;8.40;99.90;;;;;;5055560;28;20048;-80
2022/03/17 08:38:11;;;;;;;0.77;0.05;;;8.30;99.90;;;;;;5055801;28;20056;-81
2022/03/17 08:40:40;;;;;;;0.00;0.00;;;8.30;99.90;;;;;;5072156;28;20053;-80
2022/03/17 08:43:08;;;;;;;0.00;0.00;;;8.30;99.90;;;;;;5072455;28;20063;-81
2022/03/17 08:51:03;;;;;;;8.90;1.52;;;8.30;99.90;;;;;;5072071;28;20044;-80
2022/03/17 08:53:28;;;;;;;0.20;0.20;;;8.20;99.90;;;;;;5072525;28;20090;-80
2022/03/17 08:55:54;;;;;;;5.60;0.63;;;8.20;99.90;;;;;;5072450;28;20550;-80
2022/03/17 08:58:19;;;;;;;2.28;0.65;;;8.20;99.90;;;;;;5055651;28;20060;-80
2022/03/17 09:00:45;;;;;;;0.00;0.00;;;8.20;99.90;;;;;;5072109;28;20052;-80
2022/03/17 09:03:11;;;;;;;0.00;0.00;;;8.30;99.90;;;;;;5073010;28;20044;-80
2022/03/17 09:05:37;;;;;;;0.00;0.00;;;8.30;99.90;;;;;;5072363;28;20131;-80
2022/03/17 09:08:06;;;;;;;0.00;0.00;;;8.20;99.90;;;;;;5072484;28;20047;-80
2022/03/17 09:10:34;;;;;;;0.10;0.10;;;8.20;99.90;;;;;;5072007;28;20040;-80
2022/03/17 09:13:05;;;;;;;0.00;0.00;;;8.20;99.90;;;;;;5072236;28;20044;-80
2022/03/17 09:15:32;;;;;;;0.00;0.00;;;8.20;99.90;;;;;;5073020;28;20055;-80
2022/03/17 09:17:58;;;;;;;0.10;0.10;;;8.20;99.90;;;;;;5072799;28;20044;-79
2022/03/17 09:20:24;;;;;;;0.00;0.00;;;8.30;99.90;;;;;;5071971;28;20510;-79
2022/03/17 09:22:50;;;;;;;0.03;0.00;;;8.30;99.90;;;;;;5072135;28;20051;-80
2022/03/17 09:25:18;;;;;;;0.00;0.00;;;8.20;99.90;;;;;;5055435;28;20048;-80
2022/03/17 09:27:44;;;;;;;0.00;0.00;;;8.20;99.90;;;;;;5072010;28;20045;-80
2022/03/17 09:30:10;;;;;;;0.52;0.52;;;8.20;99.90;;;;;;5072058;28;20064;-80
2022/03/17 09:32:35;;;;;;;0.22;0.22;;;8.30;99.90;;;;;;5055297;28;20049;-80
2022/03/17 09:35:02;;;;;;;0.85;0.10;;;8.40;99.90;;;;;;5071828;28;20083;-80
2022/03/17 09:37:28;;;;;;;0.10;0.10;;;8.50;99.90;;;;;;5055572;28;20442;-80
2022/03/17 09:39:54;;;;;;;0.00;0.00;;;8.60;99.90;;;;;;5071911;28;20091;-80
2022/03/17 09:42:21;;;;;;;0.05;0.00;;;8.70;99.90;;;;;;5054698;28;20084;-80
2022/03/17 09:44:52;;;;;;;0.00;0.00;;;8.90;99.90;;;;;;5072601;28;20058;-80
2022/03/17 09:47:20;;;;;;;0.00;0.00;;;8.90;99.90;;;;;;5056411;28;20041;-80
2022/03/17 09:49:47;;;;;;;0.00;0.00;;;8.80;99.90;;;;;;5075483;28;20088;-80
2022/03/17 09:52:14;;;;;;;0.00;0.00;;;8.80;99.90;;;;;;5075507;28;20041;-80
2022/03/17 09:54:44;;;;;;;0.00;0.00;;;8.80;99.90;;;;;;5051778;28;20097;-81
2022/03/17 09:57:09;;;;;;;0.00;0.00;;;8.80;99.90;;;;;;5058536;28;20049;-81
2022/03/17 09:59:35;;;;;;;1.00;0.63;;;8.80;99.90;;;;;;5063403;28;20052;-81
2022/03/17 10:02:02;;;;;;;0.45;0.15;;;8.90;99.90;;;;;;5063878;28;20546;-81
2022/03/17 10:04:32;;;;;;;0.00;0.00;;;8.90;99.90;;;;;;5060310;28;20131;-81
2022/03/17 10:07:00;;;;;;;0.00;0.00;;;8.90;99.90;;;;;;5038375;28;20489;-81
2022/03/17 10:09:28;;;;;;;1.38;0.43;;;8.90;99.90;;;;;;5054360;28;20083;-82
2022/03/17 10:12:02;;;;;;;0.00;0.00;;;8.90;99.90;;;;;;5038566;28;20202;-80
2022/03/17 10:14:43;;;;;;;0.70;0.20;;;8.90;99.90;;;;;;5055012;28;20095;-82
2022/03/17 10:17:36;;;;;;;0.47;0.47;;;9.00;99.90;;;;;;5055222;28;20044;-83
2022/03/17 10:20:22;;;;;;;0.00;0.00;;;9.00;99.90;;;;;;4997739;28;20140;-82
2022/03/17 10:22:53;;;;;;;0.00;0.00;;;9.10;99.90;;;;;;4982149;28;20128;-82
2022/03/17 10:25:26;;;;;;;0.03;0.03;;;9.10;99.90;;;;;;4998100;28;20120;-82
2022/03/17 10:27:54;;;;;;;0.70;0.68;;;9.10;99.90;;;;;;4998042;28;20440;-82
2022/03/17 10:30:23;;;;;;;0.00;0.00;;;9.20;99.90;;;;;;4997285;28;20494;-83
2022/03/17 10:33:11;;;;;;;0.00;0.00;;;9.30;99.90;;;;;;4998229;28;20045;-82
2022/03/17 10:35:38;;;;;;;0.00;0.00;;;9.50;99.90;;;;;;4997870;28;20085;-81
2022/03/17 10:38:10;;;;;;;0.47;0.00;;;9.70;99.90;;;;;;4997723;28;20069;-82
2022/03/17 10:40:37;;;;;;;0.00;0.00;;;9.80;99.90;;;;;;4996945;28;20066;-81
2022/03/17 10:43:25;;;;;;;1.45;0.52;;;9.90;99.90;;;;;;4981337;28;20052;-81
2022/03/17 10:46:05;;;;;;;0.00;0.00;;;9.90;99.90;;;;;;4997746;28;20085;-81
2022/03/17 10:48:31;;;;;;;0.00;0.00;;;10.30;99.90;;;;;;4997533;28;20046;-81
2022/03/17 10:50:57;;;;;;;0.00;0.00;;;10.70;99.90;;;;;;4997586;28;20092;-80
2022/03/17 10:53:31;;;;;;;0.00;0.00;;;11.20;99.90;;;;;;4981213;28;20063;-81
2022/03/17 10:56:12;;;;;;;0.00;0.00;;;11.50;99.90;;;;;;5000112;28;20050;-80
2022/03/17 10:58:46;;;;;;;0.00;0.00;;;11.80;99.90;;;;;;5054281;28;20044;-80
2022/03/17 11:01:12;;;;;;;0.00;0.00;;;11.70;99.90;;;;;;5053987;28;20404;-81
2022/03/17 11:03:38;;;;;;;0.00;0.00;;;11.80;99.90;;;;;;5054286;28;20052;-81
2022/03/17 11:06:06;;;;;;;0.00;0.00;;;12.00;99.90;;;;;;5054100;28;20061;-81
2022/03/17 11:08:32;;;;;;;0.00;0.00;;;12.20;99.90;;;;;;5054142;28;20053;-80
2022/03/17 11:10:58;;;;;;;0.13;0.13;;;12.20;99.90;;;;;;5054279;28;20393;-81
2022/03/17 11:13:24;;;;;;;0.45;0.45;;;12.50;99.90;;;;;;5037504;28;20045;-81
2022/03/17 11:16:06;;;;;;;0.00;0.00;;;12.60;99.90;;;;;;5054021;28;20060;-81
2022/03/17 11:18:35;;;;;;;1.92;0.57;;;12.70;99.90;;;;;;5054234;28;20049;-81
2022/03/17 11:21:13;;;;;;;0.00;0.00;;;12.80;99.90;;;;;;5037419;28;20080;-81
2022/03/17 11:23:56;;;;;;;0.45;0.20;;;13.00;99.90;;;;;;5054000;28;20048;-81
2022/03/17 11:26:41;;;;;;;0.60;0.43;;;13.30;99.40;;;;;;5053959;28;20080;-81
2022/03/17 11:29:09;;;;;;;0.68;0.35;;;13.20;97.20;;;;;;5054241;28;20100;-81
2022/03/17 11:31:54;;;;;;;0.28;0.28;;;13.20;96.90;;;;;;5053655;28;20053;-81
2022/03/17 11:34:38;;;;;;;;;;;13.00;97.80;;;;;;5054399;28;20049;-81
2022/03/17 11:37:19;;;;;;;0.00;0.00;;;12.90;98.60;;;;;;5037039;28;20042;-81
2022/03/17 11:39:55;;;;;;;3.25;0.63;;;13.10;98.70;;;;;;5036492;28;20088;-81
2022/03/17 11:42:56;;;;;;;0.00;0.00;;;13.20;98.60;;;;;;5036658;28;20045;-81
2022/03/17 11:45:22;;;;;;;0.00;0.00;;;13.40;99.00;;;;;;5053379;28;20394;-81
2022/03/17 11:47:59;;;;;;;0.03;0.03;;;13.70;97.80;;;;;;5053363;28;20045;-81
2022/03/17 11:50:32;;;;;;;0.00;0.00;;;14.10;98.00;;;;;;5054019;28;20098;-81
2022/03/17 11:53:02;;;;;;;0.00;0.00;;;14.30;95.20;;;;;;5036849;28;20071;-82
2022/03/17 11:55:30;;;;;;;1.58;0.52;;;14.40;94.10;;;;;;5053257;28;20045;-81
2022/03/17 11:58:24;;;;;;;0.00;0.00;;;14.60;95.30;;;;;;5053508;28;20048;-81
2022/03/17 12:01:00;;;;;;;0.00;0.00;;;14.80;93.80;;;;;;5053725;28;20140;-81
2022/03/17 12:03:44;;;;;;;0.00;0.00;;;14.70;91.70;;;;;;5036912;28;20094;-81
2022/03/17 12:06:16;;;;;;;0.10;0.10;;;14.90;93.60;;;;;;5053220;28;20045;-81
2022/03/17 12:08:58;;;;;;;0.00;0.00;;;14.70;87.20;;;;;;5036653;28;20143;-81
2022/03/17 12:11:26;;;;;;;0.00;0.00;;;14.70;88.40;;;;;;5035917;28;20382;-81
2022/03/17 12:14:11;;;;;;;0.00;0.00;;;14.90;90.00;;;;;;5036423;28;20544;-82
2022/03/17 12:16:40;;;;;;;1.98;0.65;;;14.70;86.60;;;;;;5052908;28;20049;-81
2022/03/17 12:19:06;;;;;;;0.00;0.00;;;14.40;85.50;;;;;;5036582;28;20451;-82
2022/03/17 12:22:02;;;;;;;0.00;0.00;;;14.00;86.60;;;;;;5036066;28;20041;-81
2022/03/17 12:24:40;;;;;;;1.17;0.40;;;14.00;87.00;;;;;;5052932;28;20056;-81
2022/03/17 12:27:28;;;;;;;0.00;0.00;;;14.00;87.00;;;;;;5052615;28;20041;-81
2022/03/17 12:30:08;;;;;;;0.00;0.00;;;13.80;85.10;;;;;;5053042;28;20056;-81
2022/03/17 12:32:39;;;;;;;0.00;0.00;;;14.00;86.70;;;;;;5052888;28;20045;-81
2022/03/17 12:35:07;;;;;;;0.45;0.45;;;14.30;88.70;;;;;;5036186;28;20067;-81
2022/03/17 12:37:34;;;;;;;4.13;0.52;;;14.60;83.30;;;;;;5052482;28;20119;-81
2022/03/17 12:40:06;;;;;;;0.00;0.00;;;14.40;84.20;;;;;;5052531;28;20056;-81
2022/03/17 12:42:39;;;;;;;0.00;0.00;;;14.60;85.50;;;;;;5035601;28;20057;-82
2022/03/17 12:45:07;;;;;;;0.77;0.47;;;14.60;83.10;;;;;;5052692;28;20560;-82
2022/03/17 12:47:39;;;;;;;0.00;0.00;;;14.80;83.60;;;;;;5036062;28;20098;-82
2022/03/17 12:50:07;;;;;;;0.00;0.00;;;15.00;81.50;;;;;;5053346;28;20049;-81
2022/03/17 12:52:34;;;;;;;0.00;0.00;;;15.00;81.10;;;;;;5052656;28;20472;-82
2022/03/17 12:55:02;;;;;;;0.00;0.00;;;15.20;82.50;;;;;;5052590;28;20089;-81
2022/03/17 12:57:30;;;;;;;0.00;0.00;;;15.20;80.40;;;;;;5036226;28;20061;-81
2022/03/17 12:59:57;;;;;;;0.00;0.00;;;15.20;81.20;;;;;;5035843;28;20094;-81
2022/03/17 13:02:24;;;;;;;0.05;0.05;;;15.10;81.30;;;;;;5052220;28;20455;-82
2022/03/17 13:04:55;;;;;;;0.00;0.00;;;15.20;83.40;;;;;;5052728;28;20060;-81
2022/03/17 13:07:26;;;;;;;0.00;0.00;;;15.10;79.00;;;;;;5052660;28;20439;-81
2022/03/17 13:09:52;;;;;;;0.00;0.00;;;14.90;77.30;;;;;;5035816;28;20061;-82
2022/03/17 13:15:13;;;;;;;0.10;0.10;;;14.60;77.00;;;;;;5053103;28;20057;-81
2022/03/17 13:17:45;;;;;;;0.20;0.20;;;14.60;78.10;;;;;;5035749;28;20144;-82